Latest Weather Observations for Gingin Airport

IDW60801

Issued at 2:02 pm WST Friday 3 July 2015 (issued every 30 minutes, with the page automatically refreshed every 10 minutes)

About weather observations | Map of weather stations | Latest weather observations for WA | Other Formats
Station Details ID: 009178 Name: GINGIN AERO Lat: -31.46 Lon: 115.86 Height: 73.0 m
Data from the previous 72 hours. | See also: Recent months at Gingin Airport
Date/Time
WST
Temp
°C
App
Temp
°C
Dew
Point
Rel
Hum
%
Delta-T
°C
Wind Press
QNH
hPa
Press
MSL
hPa
Rain
since 9 am
mm
Dir
 
Spd
km/h
Gust
km/h
Spd
kts
Gust
kts
03/02:00pm 19.5 20.9 19.5 100 0.0 SW 11 19 6 10 1021.9 1021.9 0.8
03/01:30pm 18.9 21.0 18.9 100 0.0 SW 6 13 3 7 1022.1 1022.1 0.8
03/01:00pm 18.4 20.1 18.4 100 0.0 WSW 7 9 4 5 1022.2 1022.2 0.8
03/12:30pm 19.2 20.1 19.2 100 0.0 W 13 17 7 9 1022.4 1022.4 0.2
03/12:00pm 20.5 22.0 19.8 96 0.4 NW 11 17 6 9 1022.7 1022.7 0.2
03/11:30am 18.9 20.8 18.9 100 0.0 N 7 11 4 6 1023.1 1023.1 0.2
03/11:00am 19.2 20.5 19.2 100 0.0 N 11 15 6 8 1023.4 1023.4 0.2
03/10:30am 17.9 - - - - N 9 13 5 7 1023.6 1023.6 0.2
03/10:00am 16.4 - - - - NNW 11 17 6 9 1023.6 1023.6 0.0
03/09:30am 15.5 - - - - NNW 9 13 5 7 1023.6 1023.6 0.0
03/09:00am 15.4 - - - - N 7 9 4 5 1023.4 1023.4 6.4
03/08:30am 13.9 - - - - NNW 4 7 2 4 1023.2 1023.2 6.4
03/08:00am 12.1 - - - - NNW 6 7 3 4 1022.9 1022.9 6.4
03/07:30am 12.3 - - - - NNW 7 9 4 5 1022.7 1022.7 6.4
03/07:00am 12.3 - - - - NNW 9 13 5 7 1022.3 1022.3 6.4
03/06:30am 12.9 - - - - N 11 13 6 7 1022.1 1022.1 6.4
03/06:00am 11.6 - - - - N 6 9 3 5 1021.9 1021.9 6.4
03/05:30am 12.1 - - - - N 2 6 1 3 1021.6 1021.6 6.4
03/05:00am 12.6 - - - - SW 2 6 1 3 1021.4 1021.4 6.4
03/04:30am 12.4 - - - - N 7 9 4 5 1021.6 1021.6 6.4
03/04:00am 12.7 - - - - N 11 13 6 7 1021.5 1021.5 6.4
03/03:30am 12.5 - - - - N 7 9 4 5 1021.9 1021.9 6.4
03/03:00am 13.1 - - - - N 11 13 6 7 1022.0 1022.0 6.4
03/02:30am 13.0 - - - - N 11 13 6 7 1022.0 1022.0 6.2
03/02:00am 13.4 - - - - N 9 11 5 6 1022.1 1022.1 6.2
03/01:30am 13.1 - - - - N 7 9 4 5 1022.3 1022.3 6.2
03/01:00am 13.8 - - - - N 9 9 5 5 1022.3 1022.3 6.2
03/12:30am 14.2 - - - - NNW 6 7 3 4 1022.3 1022.3 6.2
03/12:00am 14.0 - - - - N 13 17 7 9 1022.4 1022.4 6.2
 
Date/Time
WST
Temp
°C
App
Temp
°C
Dew
Point
Rel
Hum
%
Delta-T
°C
Wind Press
QNH
hPa
Press
MSL
hPa
Rain
since 9 am
mm
Dir
 
Spd
km/h
Gust
km/h
Spd
kts
Gust
kts
02/11:30pm 14.1 - - - - N 11 15 6 8 1022.5 1022.5 6.2
02/11:00pm 13.7 12.8 13.7 100 0.0 NNE 11 15 6 8 1022.6 1022.6 6.2
02/10:30pm 13.1 12.4 13.1 100 0.0 NNE 9 9 5 5 1022.8 1022.8 6.2
02/10:00pm 14.3 14.3 14.3 100 0.0 NNE 7 9 4 5 1022.8 1022.8 6.2
02/09:30pm 14.3 14.3 14.3 100 0.0 NNE 7 9 4 5 1022.9 1022.9 6.2
02/09:00pm 14.4 14.5 14.4 100 0.0 NNE 7 7 4 4 1023.0 1023.0 6.2
02/08:30pm 14.6 14.0 14.6 100 0.0 NNE 11 15 6 8 1023.1 1023.1 6.0
02/08:00pm 14.9 14.8 14.9 100 0.0 NNW 9 11 5 6 1023.4 1023.4 3.6
02/07:30pm 15.1 14.7 15.1 100 0.0 NNW 11 15 6 8 1023.2 1023.2 2.0
02/07:00pm 15.7 15.7 15.2 97 0.3 N 9 11 5 6 1022.6 1022.6 0.4
02/06:30pm 15.7 17.4 15.1 96 0.3 CALM 0 0 0 0 1022.1 1022.1 0.2
02/06:00pm 16.2 16.5 14.4 89 1.0 N 6 6 3 3 1021.8 1021.8 0.2
02/05:30pm 16.4 16.1 14.4 88 1.1 N 9 11 5 6 1021.6 1021.6 0.2
02/05:00pm 17.5 17.7 14.8 84 1.6 N 7 9 4 5 1021.5 1021.5 0.2
02/04:30pm 18.0 18.0 13.7 76 2.5 N 6 7 3 4 1021.2 1021.2 0.2
02/04:00pm 18.5 18.2 12.7 69 3.2 NNW 6 9 3 5 1021.2 1021.2 0.2
02/03:30pm 18.7 17.1 11.5 63 4.0 N 11 15 6 8 1021.1 1021.1 0.2
02/03:00pm 19.2 17.4 12.0 63 4.0 N 13 15 7 8 1021.1 1021.1 0.2
02/02:30pm 18.9 17.7 12.9 68 3.4 N 11 17 6 9 1021.1 1021.1 0.2
02/02:00pm 18.7 16.7 12.7 68 3.4 N 15 20 8 11 1021.3 1021.3 0.2
02/01:30pm 18.1 15.8 13.0 72 2.9 NNE 17 22 9 12 1021.5 1021.5 0.2
02/01:00pm 17.8 16.6 12.7 72 2.8 NNE 11 17 6 9 1021.8 1021.8 0.2
02/12:30pm 17.4 15.7 12.5 73 2.7 NNE 13 19 7 10 1022.3 1022.3 0.2
02/12:00pm 16.8 16.6 13.5 81 1.9 NE 7 11 4 6 1022.9 1022.9 0.2
02/11:30am 16.4 15.6 12.9 80 2.0 NE 9 17 5 9 1023.1 1023.1 0.2
02/11:00am 16.3 14.8 11.9 75 2.4 NE 11 13 6 7 1023.3 1023.3 0.0
02/10:30am 15.9 14.0 11.7 76 2.3 NE 13 17 7 9 1023.3 1023.3 0.0
02/10:00am 15.6 14.0 11.6 77 2.2 NNE 11 15 6 8 1023.5 1023.5 0.0
02/09:30am 15.5 13.7 10.9 74 2.5 NE 11 17 6 9 1023.2 1023.2 0.0
02/09:00am 14.7 12.7 11.5 81 1.7 ENE 13 15 7 8 1023.1 1023.1 1.6
02/08:30am 14.0 13.0 12.2 89 1.0 ENE 9 17 5 9 1023.3 1023.3 1.6
02/08:00am 13.3 12.1 12.7 96 0.3 ENE 11 11 6 6 1023.1 1023.1 1.6
02/07:30am 13.6 12.5 12.0 90 0.9 ENE 9 11 5 6 1023.0 1023.0 1.6
02/07:00am 13.8 12.6 11.5 86 1.2 ENE 9 11 5 6 1022.7 1022.7 1.6
02/06:30am 13.9 11.2 11.6 86 1.2 ENE 17 20 9 11 1022.1 1022.1 1.6
02/06:00am 13.8 11.3 12.2 90 0.9 ENE 17 24 9 13 1022.1 1022.1 1.6
02/05:30am 13.2 12.1 11.9 92 0.7 E 9 13 5 7 1022.2 1022.2 1.6
02/05:00am 13.5 11.5 12.6 94 0.5 E 15 20 8 11 1022.0 1022.0 1.6
02/04:30am 13.6 12.1 13.0 96 0.3 ESE 13 17 7 9 1022.3 1022.3 1.6
02/04:00am 13.6 11.5 13.6 100 0.0 E 17 20 9 11 1022.6 1022.6 1.6
02/03:30am 13.1 12.0 13.1 100 0.0 E 11 13 6 7 1023.1 1023.1 1.6
02/03:00am 13.4 12.4 13.4 100 0.0 E 11 15 6 8 1023.6 1023.6 1.6
02/02:30am 13.0 12.2 13.0 100 0.0 ENE 9 15 5 8 1023.5 1023.5 1.6
02/02:00am 12.9 12.1 12.9 100 0.0 ENE 9 11 5 6 1022.8 1022.8 1.6
02/01:30am 13.0 12.2 13.0 100 0.0 ENE 9 13 5 7 1022.7 1022.7 1.6
02/01:00am 12.9 11.0 12.9 100 0.0 ENE 15 19 8 10 1023.0 1023.0 1.4
02/12:30am 13.2 14.2 13.2 100 0.0 CALM 0 0 0 0 1023.8 1023.8 1.4
02/12:00am 13.4 12.8 13.4 100 0.0 ENE 9 13 5 7 1024.2 1024.2 1.4
 
Date/Time
WST
Temp
°C
App
Temp
°C
Dew
Point
Rel
Hum
%
Delta-T
°C
Wind Press
QNH
hPa
Press
MSL
hPa
Rain
since 9 am
mm
Dir
 
Spd
km/h
Gust
km/h
Spd
kts
Gust
kts
01/11:30pm 13.5 12.5 13.5 100 0.0 ENE 11 13 6 7 1023.3 1023.3 1.4
01/11:00pm 13.5 11.8 13.5 100 0.0 ENE 15 19 8 10 1023.6 1023.6 1.4
01/10:30pm 13.3 12.3 13.3 100 0.0 NNE 11 15 6 8 1024.3 1024.3 1.2
01/10:00pm 13.5 13.5 13.5 100 0.0 NNE 6 7 3 4 1024.9 1024.9 1.2
01/09:30pm 13.5 13.5 13.5 100 0.0 NNE 6 7 3 4 1025.1 1025.2 1.2
01/09:00pm 13.5 14.6 13.5 100 0.0 CALM 0 7 0 4 1025.1 1025.2 0.8
01/08:30pm 13.6 14.7 13.6 100 0.0 CALM 0 0 0 0 1024.9 1024.9 0.4
01/08:00pm 13.8 13.9 13.8 100 0.0 NNE 6 11 3 6 1024.6 1024.6 0.4
01/07:30pm 13.7 12.8 13.7 100 0.0 NNE 11 13 6 7 1024.1 1024.1 0.4
01/07:00pm 14.0 12.8 14.0 100 0.0 NNE 13 15 7 8 1024.1 1024.1 0.4
01/06:30pm 14.3 13.1 14.1 99 0.1 NNE 13 15 7 8 1024.3 1024.3 0.2
01/06:00pm 14.5 14.2 13.2 92 0.7 N 7 9 4 5 1024.6 1024.6 0.0
01/05:30pm 15.3 13.9 12.1 81 1.7 N 11 13 6 7 1024.4 1024.4 0.0
01/05:00pm 16.9 15.8 10.5 66 3.4 NNW 7 11 4 6 1024.6 1024.6 0.0
01/04:30pm 17.7 16.0 9.8 60 4.2 NNW 9 13 5 7 1024.5 1024.5 0.0
01/04:00pm 18.2 16.5 9.8 58 4.4 NW 9 11 5 6 1024.4 1024.4 0.0
01/03:30pm 18.8 17.6 10.4 58 4.5 WNW 7 9 4 5 1024.3 1024.3 0.0
01/03:00pm 19.1 18.2 9.3 53 5.2 W 4 7 2 4 1023.7 1023.7 0.0
01/02:30pm 19.1 18.6 10.6 58 4.6 WNW 4 7 2 4 1023.7 1023.7 0.0
01/02:00pm 19.0 17.8 9.5 54 5.0 NW 6 9 3 5 1023.3 1023.3 0.0
01/01:30pm 19.4 17.2 7.8 47 6.0 N 9 11 5 6 1023.0 1023.0 0.0
01/01:00pm 19.9 18.1 7.9 46 6.2 NNW 7 11 4 6 1023.1 1023.1 0.0
01/12:30pm 19.5 18.2 9.1 51 5.5 N 6 9 3 5 1023.4 1023.4 0.0
01/12:00pm 18.9 16.9 8.8 52 5.3 N 9 13 5 7 1023.9 1023.9 0.0
01/11:30am 18.7 16.6 8.1 50 5.5 N 9 13 5 7 1024.0 1024.0 0.0
01/11:00am 18.6 16.1 8.0 50 5.4 N 11 13 6 7 1024.6 1024.6 0.0
01/10:30am 17.8 15.9 7.5 51 5.2 NNE 7 9 4 5 1024.5 1024.5 0.0
01/10:00am 16.7 14.1 7.9 56 4.4 NNE 11 13 6 7 1024.5 1024.5 0.0
01/09:30am 16.3 14.3 7.3 55 4.5 NNE 7 7 4 4 1024.6 1024.6 0.0
01/09:00am 16.5 14.6 7.7 56 4.4 NNE 7 11 4 6 1024.1 1024.1 0.0
01/08:30am 14.2 13.2 9.0 71 2.6 NNE 4 7 2 4 1024.0 1024.0 0.0
01/08:00am 11.6 11.2 8.1 79 1.7 CALM 0 0 0 0 1024.1 1024.1 0.0
01/07:30am 12.3 10.7 8.2 76 2.0 NNE 6 7 3 4 1023.9 1023.9 0.0
01/07:00am 11.8 11.1 8.5 80 1.6 NNE 2 9 1 5 1023.8 1023.8 0.0
01/06:30am 11.6 10.2 8.8 83 1.4 NNE 6 9 3 5 1023.5 1023.5 0.0
01/06:00am 12.0 10.4 8.1 77 1.9 NNE 6 7 3 4 1023.3 1023.3 0.0
01/05:30am 11.7 9.7 8.6 81 1.5 NNE 9 11 5 6 1023.0 1023.0 0.0
01/05:00am 13.4 11.8 8.0 70 2.7 NNE 6 7 3 4 1023.2 1023.2 0.0
01/04:30am 13.8 11.7 8.2 69 2.8 NNE 9 11 5 6 1023.2 1023.2 0.0
01/04:00am 13.2 11.2 8.5 73 2.3 NNE 9 11 5 6 1023.1 1023.1 0.0
01/03:30am 13.8 12.4 9.6 76 2.2 NNE 7 9 4 5 1023.4 1023.4 0.0
01/03:00am 13.6 12.5 10.8 83 1.5 NNE 7 9 4 5 1023.4 1023.4 0.0
01/02:30am 13.6 12.3 11.1 85 1.3 NNE 9 11 5 6 1023.6 1023.6 0.0
01/02:00am 13.4 12.1 11.1 86 1.2 NNE 9 11 5 6 1023.6 1023.6 0.0
01/01:30am 13.2 11.9 11.3 88 1.0 NNE 9 11 5 6 1023.4 1023.4 0.0
01/01:00am 13.4 13.3 10.9 85 1.3 WNW 2 6 1 3 1023.7 1023.7 0.0
01/12:30am 13.8 12.6 10.4 80 1.8 WNW 7 11 4 6 1024.1 1024.1 0.0
01/12:00am 13.0 13.4 11.1 88 1.0 CALM 0 0 0 0 1023.7 1023.7 0.0
 
Date/Time
WST
Temp
°C
App
Temp
°C
Dew
Point
Rel
Hum
%
Delta-T
°C
Wind Press
QNH
hPa
Press
MSL
hPa
Rain
since 9 am
mm
Dir
 
Spd
km/h
Gust
km/h
Spd
kts
Gust
kts
30/11:30pm 13.4 13.0 11.1 86 1.2 NNE 4 7 2 4 1023.6 1023.6 0.0
30/11:00pm 12.5 11.2 11.4 93 0.6 NE 9 13 5 7 1023.6 1023.6 0.0
30/10:30pm 12.5 11.3 11.6 94 0.5 NE 9 11 5 6 1023.5 1023.5 0.0
30/10:00pm 12.7 13.2 11.6 93 0.6 CALM 0 6 0 3 1023.9 1023.9 0.0
30/09:30pm 12.7 13.1 11.4 92 0.7 CALM 0 0 0 0 1023.5 1023.5 0.0
30/09:00pm 13.4 13.9 11.5 88 1.0 CALM 0 0 0 0 1023.4 1023.4 0.0
30/08:30pm 13.4 13.5 11.6 89 1.0 NE 2 6 1 3 1023.3 1023.3 0.0
30/08:00pm 13.2 13.4 10.7 85 1.3 CALM 0 9 0 5 1023.2 1023.2 0.0
30/07:30pm 13.6 13.9 10.9 84 1.4 CALM 0 0 0 0 1023.3 1023.3 0.0
30/07:00pm 14.1 14.5 11.1 82 1.6 CALM 0 0 0 0 1023.2 1023.2 0.0
30/06:30pm 14.8 15.2 11.4 80 1.8 CALM 0 0 0 0 1023.0 1023.0 0.0
30/06:00pm 15.4 14.9 10.8 74 2.4 W 4 6 2 3 1022.6 1022.6 0.0
30/05:30pm 16.1 16.2 10.2 68 3.1 CALM 0 7 0 4 1021.9 1021.9 0.0
30/05:00pm 18.7 17.7 11.0 61 4.2 WSW 7 9 4 5 1022.3 1022.3 0.0
30/04:30pm 20.0 17.7 10.4 54 5.2 WSW 13 19 7 10 1022.2 1022.2 0.0
30/04:00pm 20.9 17.9 9.2 47 6.2 WSW 15 20 8 11 1022.0 1022.0 0.0
30/03:30pm 21.7 19.1 6.0 36 7.9 NW 9 15 5 8 1021.8 1021.8 0.0
30/03:00pm 22.7 18.2 4.2 30 9.0 NW 17 24 9 13 1022.0 1022.0 0.0
30/02:30pm 22.6 17.9 3.2 28 9.3 NNW 17 24 9 13 1021.8 1021.8 0.0

Other Formats:

Comma delimited format used in spreadsheet applications
http://www.bom.gov.au/fwo/IDW60801/IDW60801.95612.axf

JavaScript Object Notation format (JSON) in row-major order
http://www.bom.gov.au/fwo/IDW60801/IDW60801.95612.json